This is the latest recevied weather packets stored in our database for station/object EA4IAJ-12. If no packets are shown the sender has not sent any weather packets the latest 10 day(s).
| Time | Temp. | Humidity | Pressure | Rain* | Wind** | Luminosity | Snow |
|---|---|---|---|---|---|---|---|
| 1787868381 | 16.67° C | 100% | 1000.7 hPa | - | - | - | - |
| 1787867492 | 16.11° C | 100% | 1000.5 hPa | - | - | - | - |
| 1787866591 | 16.67° C | 100% | 1000.7 hPa | - | - | - | - |
| 1787865691 | 16.67° C | 100% | 1002.5 hPa | - | - | - | - |
| 1787864790 | 17.22° C | 99% | 1002.7 hPa | - | - | - | - |
| 1787863890 | 17.22° C | 99% | 1002.7 hPa | - | - | - | - |
| 1787862989 | 17.22° C | 98% | 1003.3 hPa | - | - | - | - |
| 1787862089 | 17.22° C | 97% | 1002.8 hPa | - | - | - | - |
| 1787861227 | 17.78° C | 97% | 1004 hPa | - | - | - | - |
| 1787861189 | 17.78° C | 97% | 1004 hPa | - | - | - | - |
| 1787860288 | 18.33° C | 97% | 1006 hPa | - | - | - | - |
| 1787859387 | 18.33° C | 97% | 1007.6 hPa | - | - | - | - |
| 1787858487 | 18.89° C | 97% | 1008.1 hPa | - | - | - | - |
| 1787856686 | 18.89° C | 97% | 1009.9 hPa | - | - | - | - |
| 1787855785 | 19.44° C | 97% | 1010.9 hPa | - | - | - | - |
| 1787854884 | 19.44° C | 96% | 1010.8 hPa | - | - | - | - |
| 1787853984 | 20° C | 96% | 1012.4 hPa | - | - | - | - |
| 1787853084 | 20° C | 96% | 1012.5 hPa | - | - | - | - |
| 1787852183 | 21.11° C | 97% | 1017.1 hPa | - | - | - | - |
| 1787851283 | 21.67° C | 97% | 1020.2 hPa | - | - | - | - |
| 1787850382 | 21.67° C | 99% | 1020.4 hPa | - | - | - | - |
| 1787849481 | 21.67° C | 99% | 1020 hPa | - | - | - | - |
| 1787848581 | 22.22° C | 100% | 1021.3 hPa | - | - | - | - |
| 1787847680 | 22.78° C | 100% | 1023.9 hPa | - | - | - | - |
| 1787846780 | 23.33° C | 100% | 1026.6 hPa | - | - | - | - |
* Rain since midnight (hover to see other rain measurements)
** Current wind speed in m/s (hover to see current wind gust speed)